Time;durP1;ratioP1;P1;durP2;ratioP2;P2;SDS_P1;SDS_P2;PMS_P1;PMS_P2;Temp;Humidity;BMP_temperature;BMP_pressure;BME280_temperature;BME280_humidity;BME280_pressure;Samples;Min_cycle;Max_cycle;Signal;HPM_P1;HPM_P2
2022/08/06 00:04:03;;;;;;;4.17;1.90;;;;;;;;;;5124342;27;2052539;-78
2022/08/06 00:06:29;;;;;;;4.28;2.20;;;;;;;;;;5136205;27;20396;-79
2022/08/06 00:08:55;;;;;;;4.93;2.20;;;;;;;;;;5153720;27;20465;-79
2022/08/06 00:11:21;;;;;;;4.53;1.90;;;;;;;;;;5135636;27;20396;-79
2022/08/06 00:13:47;;;;;;;4.10;2.00;;;;;;;;;;5135855;27;20396;-78
2022/08/06 00:16:13;;;;;;;4.40;2.00;;;;;;;;;;5135991;27;20482;-79
2022/08/06 00:18:39;;;;;;;4.75;1.83;;;;;;;;;;5135616;27;20400;-78
2022/08/06 00:21:05;;;;;;;4.97;2.10;;;;;;;;;;5148839;27;20412;-78
2022/08/06 00:23:32;;;;;;;5.72;2.30;;;;;;;;;;5152639;27;20424;-79
2022/08/06 00:25:58;;;;;;;3.47;1.70;;;;;;;;;;5152753;27;20898;-79
2022/08/06 00:28:25;;;;;;;4.10;1.90;;;13.30;99.90;;;;;;5135838;27;20396;-78
2022/08/06 00:30:51;;;;;;;4.28;2.20;;;;;;;;;;5152552;27;20428;-78
2022/08/06 00:33:17;;;;;;;7.68;3.63;;;;;;;;;;5145562;27;20416;-78
2022/08/06 00:35:43;;;;;;;6.90;3.63;;;;;;;;;;5152434;27;20399;-78
2022/08/06 00:38:09;;;;;;;8.13;3.97;;;;;;;;;;5135101;27;20392;-79
2022/08/06 00:40:36;;;;;;;6.53;3.80;;;;;;;;;;5135715;27;20792;-78
2022/08/06 00:43:03;;;;;;;7.85;3.60;;;13.00;99.90;;;;;;5115080;27;20425;-78
2022/08/06 00:45:30;;;;;;;6.50;2.75;;;13.50;99.90;;;;;;5114670;27;20398;-78
2022/08/06 00:47:56;;;;;;;5.60;2.33;;;;;;;;;;5131903;27;20947;-78
2022/08/06 00:50:23;;;;;;;5.57;2.38;;;;;;;;;;5131437;27;20953;-78
2022/08/06 00:52:49;;;;;;;7.80;2.30;;;;;;;;;;5131334;27;20421;-78
2022/08/06 00:55:15;;;;;;;4.88;2.10;;;;;;;;;;5114470;27;20398;-78
2022/08/06 00:57:41;;;;;;;6.38;2.50;;;;;;;;;;5131742;27;20452;-77
2022/08/06 01:00:07;;;;;;;6.05;2.20;;;;;;;;;;5114502;27;20409;-79
2022/08/06 01:02:34;;;;;;;6.25;2.50;;;;;;;;;;5130954;27;20418;-78
2022/08/06 01:05:00;;;;;;;5.40;2.40;;;;;;;;;;5131258;27;20410;-78
2022/08/06 01:07:26;;;;;;;5.85;2.45;;;;;;;;;;5114123;27;20481;-79
2022/08/06 01:09:52;;;;;;;3.97;2.30;;;;;;;;;;5114551;27;20402;-78
2022/08/06 01:12:18;;;;;;;5.22;2.30;;;;;;;;;;5131353;27;20811;-78
2022/08/06 01:14:45;;;;;;;5.05;2.33;;;;;;;;;;5104939;27;20398;-78
2022/08/06 01:17:19;;;;;;;3.58;1.98;;;;;;;;;;5117554;27;20406;-78
2022/08/06 01:20:02;;;;;;;5.50;2.20;;;;;;;;;;5117446;27;20974;-78
2022/08/06 01:22:31;;;;;;;4.70;1.90;;;;;;;;;;5117890;27;20418;-78
2022/08/06 01:25:25;;;;;;;4.30;2.03;;;12.70;99.90;;;;;;5117315;27;20414;-78
2022/08/06 01:28:08;;;;;;;6.38;2.10;;;12.20;99.90;;;;;;5117188;27;20410;-78
2022/08/06 01:30:37;;;;;;;4.32;2.03;;;;;;;;;;5100170;27;20781;-78
2022/08/06 01:33:11;;;;;;;4.78;2.22;;;12.50;99.90;;;;;;5116998;27;20767;-80
2022/08/06 01:35:41;;;;;;;5.38;2.28;;;12.50;99.90;;;;;;5098818;28;20416;-78
2022/08/06 01:38:20;;;;;;;4.30;2.28;;;;;;;;;;5082874;28;20439;-79
2022/08/06 01:40:49;;;;;;;5.38;2.60;;;12.40;99.90;;;;;;5080124;28;20404;-80
2022/08/06 01:43:17;;;;;;;4.80;2.58;;;12.50;99.90;;;;;;5096685;28;20926;-79
2022/08/06 01:45:44;;;;;;;6.80;3.28;;;;;;;;;;5096694;28;20480;-78
2022/08/06 01:48:12;;;;;;;11.15;5.40;;;;;;;;;;5113807;28;20499;-78
2022/08/06 01:50:41;;;;;;;8.00;5.03;;;12.50;99.90;;;;;;5080039;28;20782;-79
2022/08/06 01:53:11;;;;;;;8.90;5.33;;;12.40;99.90;;;;;;5096489;28;20461;-79
2022/08/06 01:55:44;;;;;;;9.23;5.28;;;12.40;99.90;;;;;;5096482;28;20411;-79
2022/08/06 01:58:12;;;;;;;8.38;4.55;;;12.30;99.90;;;;;;5096697;28;20392;-79
2022/08/06 02:00:42;;;;;;;7.55;4.22;;;12.20;99.90;;;;;;5096439;28;20491;-78
2022/08/06 02:03:14;;;;;;;7.72;4.32;;;12.20;99.90;;;;;;5096089;28;20481;-78
2022/08/06 02:05:42;;;;;;;8.32;4.10;;;;;;;;;;5096240;28;20403;-78
2022/08/06 02:08:12;;;;;;;9.35;3.85;;;12.10;99.90;;;;;;5079037;28;20408;-77
2022/08/06 02:10:39;;;;;;;6.22;3.50;;;;;;;;;;5089375;27;20414;-77
2022/08/06 02:13:06;;;;;;;6.15;3.40;;;;;;;;;;5077276;27;20432;-77
2022/08/06 02:15:33;;;;;;;5.33;3.30;;;;;;;;;;5093108;27;20436;-77
2022/08/06 02:18:00;;;;;;;5.47;3.08;;;;;;;;;;5061692;28;20427;-77
2022/08/06 02:20:34;;;;;;;4.72;2.78;;;11.90;99.90;;;;;;5112043;28;20529;-77
2022/08/06 02:23:03;;;;;;;5.47;2.97;;;;;;;;;;5094377;28;20424;-77
2022/08/06 02:25:30;;;;;;;5.70;2.85;;;11.90;99.90;;;;;;5094285;28;20478;-77
2022/08/06 02:30:01;;;;;;;5.95;2.90;;;;;;;;;;5139161;27;20373;-77
2022/08/06 02:32:27;;;;;;;6.78;2.90;;;;;;;;;;5091168;28;20447;-77
2022/08/06 02:34:54;;;;;;;5.15;3.30;;;;;;;;;;5081177;28;20426;-77
2022/08/06 02:37:27;;;;;;;5.63;3.05;;;;;;;;;;5087843;28;20421;-77
2022/08/06 02:39:55;;;;;;;5.00;2.93;;;;;;;;;;5081455;28;20494;-78
2022/08/06 02:42:32;;;;;;;6.15;3.20;;;11.70;99.90;;;;;;5091251;28;20418;-78
2022/08/06 02:45:01;;;;;;;4.97;3.00;;;;;;;;;;5062564;28;20427;-77
2022/08/06 02:47:52;;;;;;;7.72;3.28;;;11.60;99.90;;;;;;5086139;28;20414;-77
2022/08/06 02:50:22;;;;;;;6.35;3.55;;;11.60;99.90;;;;;;5098024;28;20413;-77
2022/08/06 02:53:02;;;;;;;5.82;3.13;;;;;;;;;;5085932;28;20409;-77
2022/08/06 02:55:38;;;;;;;6.55;3.50;;;11.50;99.90;;;;;;5095800;28;20436;-77
2022/08/06 02:58:10;;;;;;;7.30;3.60;;;;;;;;;;5090684;28;20413;-77
2022/08/06 03:00:39;;;;;;;4.47;3.40;;;11.70;99.90;;;;;;5069434;28;20423;-77
2022/08/06 03:03:07;;;;;;;6.75;3.50;;;;;;;;;;5086247;28;20494;-77
2022/08/06 03:05:34;;;;;;;5.80;3.80;;;;;;;;;;5078410;28;20972;-77
2022/08/06 03:08:01;;;;;;;7.70;3.45;;;11.60;99.90;;;;;;5084932;28;20929;-76
2022/08/06 03:10:29;;;;;;;5.25;3.50;;;11.80;99.90;;;;;;5082138;28;20420;-76
2022/08/06 03:12:56;;;;;;;6.45;3.67;;;;;;;;;;5107412;28;20429;-77
2022/08/06 03:15:51;;;;;;;5.53;3.80;;;;;;;;;;5094595;28;20503;-76
2022/08/06 03:18:18;;;;;;;7.32;4.00;;;;;;;;;;5065836;28;20417;-77
2022/08/06 03:20:45;;;;;;;7.05;4.28;;;11.40;99.90;;;;;;5096344;28;20504;-77
2022/08/06 03:23:13;;;;;;;6.05;3.70;;;;;;;;;;5084803;28;20405;-77
2022/08/06 03:25:41;;;;;;;5.75;4.10;;;;;;;;;;5105131;28;20423;-77
2022/08/06 03:28:08;;;;;;;5.93;4.30;;;;;;;;;;5097627;28;20842;-77
2022/08/06 03:30:34;;;;;;;6.75;4.20;;;;;;;;;;5085538;28;20425;-77
2022/08/06 03:33:11;;;;;;;5.93;3.70;;;11.40;99.90;;;;;;5086757;28;20421;-77
2022/08/06 03:35:38;;;;;;;5.70;3.92;;;11.10;99.90;;;;;;5087517;28;20898;-77
2022/08/06 03:38:06;;;;;;;5.40;3.80;;;;;;;;;;5074190;28;20419;-77
2022/08/06 03:40:33;;;;;;;6.78;3.90;;;;;;;;;;5076229;28;20811;-77
2022/08/06 03:42:59;;;;;;;5.40;3.83;;;;;;;;;;5070312;28;20419;-78
2022/08/06 03:45:27;;;;;;;5.45;4.00;;;11.20;99.90;;;;;;5073428;28;20421;-77
2022/08/06 03:47:56;;;;;;;6.43;3.97;;;11.30;99.90;;;;;;5075964;28;20433;-77
2022/08/06 03:50:23;;;;;;;4.85;3.65;;;;;;;;;;5071373;28;20420;-77
2022/08/06 03:52:53;;;;;;;6.70;3.85;;;;;;;;;;5085347;28;20945;-77
2022/08/06 03:55:23;;;;;;;6.80;3.67;;;11.10;99.90;;;;;;5074320;28;20418;-77
2022/08/06 03:57:50;;;;;;;5.20;3.67;;;;;;;;;;5072550;28;20418;-77
2022/08/06 04:00:18;;;;;;;5.00;3.40;;;11.20;99.90;;;;;;5053724;28;20903;-76
2022/08/06 04:02:46;;;;;;;6.60;3.63;;;;;;;;;;5056152;28;20798;-77
2022/08/06 04:05:15;;;;;;;5.43;3.78;;;;;;;;;;5087480;28;20440;-77
2022/08/06 04:07:41;;;;;;;5.23;3.70;;;;;;;;;;5091717;28;20448;-77
2022/08/06 04:10:09;;;;;;;4.93;3.55;;;11.10;99.90;;;;;;5063275;28;20415;-77
2022/08/06 05:26:01;;;;;;;5.20;3.30;;;;;;;;;;5126907;27;20394;-77
2022/08/06 05:28:27;;;;;;;5.47;3.10;;;;;;;;;;5108295;28;20381;-77
2022/08/06 05:30:53;;;;;;;7.50;3.20;;;;;;;;;;5103978;28;20500;-77
2022/08/06 05:34:34;;;;;;;4.32;2.70;;;;;;;;;;5147638;27;20401;-77
2022/08/06 05:37:00;;;;;;;4.25;2.78;;;;;;;;;;5133081;27;20793;-77
2022/08/06 05:39:26;;;;;;;6.47;3.20;;;;;;;;;;5111184;28;20429;-77
2022/08/06 05:41:52;;;;;;;4.22;2.90;;;;;;;;;;5155364;27;20913;-77
2022/08/06 05:44:18;;;;;;;5.85;3.47;;;;;;;;;;5126377;27;20421;-77
2022/08/06 05:46:53;;;;;;;6.63;3.43;;;13.20;99.90;;;;;;5129405;27;20442;-77
2022/08/06 05:49:27;;;;;;;4.30;3.25;;;13.30;99.90;;;;;;5110963;28;20396;-77
2022/08/06 05:51:58;;;;;;;5.25;3.20;;;;;;;;;;5141066;27;20794;-77
2022/08/06 05:54:31;;;;;;;6.37;3.40;;;;;;;;;;5128937;27;20417;-77
2022/08/06 05:57:01;;;;;;;4.43;3.00;;;;;;;;;;5131708;27;20424;-76
2022/08/06 05:59:29;;;;;;;4.95;3.17;;;13.90;99.90;;;;;;5114075;27;20449;-77
2022/08/06 06:01:56;;;;;;;5.40;3.20;;;;;;;;;;5113170;28;20420;-76
2022/08/06 06:04:23;;;;;;;5.28;3.33;;;14.30;99.90;;;;;;5104854;28;20493;-76
2022/08/06 06:06:49;;;;;;;5.00;2.90;;;14.20;99.90;;;;;;5090945;28;20526;-77
2022/08/06 06:09:16;;;;;;;5.05;2.70;;;;;;;;;;5095141;28;20494;-77
2022/08/06 06:11:43;;;;;;;4.22;3.10;;;;;;;;;;5126614;27;20423;-77
2022/08/06 06:14:26;;;;;;;4.30;2.45;;;;;;;;;;5125853;27;20446;-78
2022/08/06 06:17:01;;;;;;;6.28;2.38;;;;;;;;;;5121476;27;20814;-77
2022/08/06 06:19:53;;;;;;;6.47;2.28;;;;;;;;;;5116491;27;20481;-77
2022/08/06 06:22:21;;;;;;;4.43;2.40;;;;;;;;;;5134649;27;20473;-78
2022/08/06 06:24:53;;;;;;;4.63;2.10;;;;;;;;;;5146496;27;20402;-78
2022/08/06 06:27:28;;;;;;;4.10;1.80;;;;;;;;;;5137138;27;20422;-77
2022/08/06 06:30:08;;;;;;;3.00;2.00;;;15.30;99.90;;;;;;5132357;27;20870;-77
2022/08/06 06:32:41;;;;;;;4.68;1.73;;;;;;;;;;5114616;27;20424;-75
2022/08/06 06:35:10;;;;;;;4.05;1.58;;;;;;;;;;5127132;27;20426;-76
2022/08/06 06:37:39;;;;;;;6.03;1.50;;;;;;;;;;5102304;27;20754;-75
2022/08/06 06:40:19;;;;;;;4.80;1.40;;;;;;;;;;5104740;28;20399;-75
2022/08/06 06:43:01;;;;;;;3.35;1.55;;;16.10;99.90;;;;;;5111456;28;20411;-75
2022/08/06 06:45:51;;;;;;;3.78;1.50;;;16.20;99.90;;;;;;5117701;27;20418;-75
2022/08/06 06:48:22;;;;;;;4.78;1.42;;;;;;;;;;5134001;27;20882;-76
2022/08/06 06:50:54;;;;;;;4.45;1.30;;;16.30;99.90;;;;;;5131773;27;20414;-75
2022/08/06 06:53:22;;;;;;;3.35;1.13;;;16.70;99.90;;;;;;5095633;28;20499;-75
2022/08/06 06:55:51;;;;;;;3.97;1.10;;;;;;;;;;5092333;27;20415;-77
2022/08/06 06:58:37;;;;;;;3.27;1.10;;;;;;;;;;5104834;27;20746;-76
2022/08/06 07:01:09;;;;;;;4.85;1.40;;;;;;;;;;5133368;27;20398;-76
2022/08/06 07:03:37;;;;;;;4.93;1.00;;;;;;;;;;5119374;27;20426;-76
2022/08/06 07:06:05;;;;;;;3.03;1.20;;;;;;;;;;5100721;27;20492;-76
2022/08/06 07:08:32;;;;;;;3.20;1.10;;;;;;;;;;5120114;27;20423;-77
2022/08/06 07:11:00;;;;;;;2.50;1.08;;;17.00;99.90;;;;;;5103431;28;20439;-74
2022/08/06 07:13:28;;;;;;;4.97;1.25;;;17.40;99.90;;;;;;5110955;28;20420;-76
2022/08/06 07:15:55;;;;;;;3.47;1.00;;;17.50;99.90;;;;;;5093394;28;20495;-77
2022/08/06 07:18:22;;;;;;;5.60;1.13;;;;;;;;;;5113119;28;20787;-77
2022/08/06 07:20:48;;;;;;;3.58;1.00;;;;;;;;;;5116382;27;20467;-76
2022/08/06 07:23:16;;;;;;;5.32;1.10;;;17.50;99.90;;;;;;5080481;28;20428;-76
2022/08/06 07:25:43;;;;;;;2.50;1.10;;;;;;;;;;5104892;27;20422;-76
2022/08/06 07:28:10;;;;;;;1.60;0.80;;;;;;;;;;5133204;27;20403;-77
2022/08/06 07:30:36;;;;;;;5.15;1.25;;;;;;;;;;5109305;27;20760;-77
2022/08/06 07:33:03;;;;;;;4.75;1.38;;;18.00;99.90;;;;;;5115918;27;20471;-77
2022/08/06 07:35:31;;;;;;;3.55;1.20;;;;;;;;;;5117341;27;20418;-76
2022/08/06 07:38:00;;;;;;;5.28;1.20;;;;;;;;;;5116046;27;20391;-77
2022/08/06 07:40:27;;;;;;;4.80;1.50;;;;;;;;;;5132321;27;20391;-76
2022/08/06 07:43:00;;;;;;;3.83;1.30;;;18.10;99.90;;;;;;5108646;27;20401;-76
2022/08/06 07:45:31;;;;;;;3.25;1.60;;;18.00;99.90;;;;;;5113412;27;20448;-76
2022/08/06 07:47:58;;;;;;;2.63;1.20;;;;;;;;;;5111433;27;20403;-76
2022/08/06 07:50:25;;;;;;;5.50;1.50;;;;;;;;;;5090273;27;20412;-76
2022/08/06 07:52:55;;;;;;;5.65;1.70;;;;;;;;;;5088933;27;20757;-75
2022/08/06 07:55:24;;;;;;;3.67;1.70;;;;;;;;;;5128354;27;20463;-78
2022/08/06 07:57:52;;;;;;;5.18;2.10;;;18.00;99.90;;;;;;5106917;28;20935;-79
2022/08/06 08:00:18;;;;;;;5.18;2.05;;;18.10;99.90;;;;;;5094636;28;20416;-79
2022/08/06 08:06:17;;;;;;;4.43;2.17;;;18.20;99.90;;;;;;5112896;28;20407;-79
2022/08/06 08:08:16;;;;;;;5.30;1.90;;;18.50;99.90;;;;;;5104639;28;20929;-78
2022/08/06 08:10:43;;;;;;;4.57;2.00;;;;;;;;;;5105502;28;20416;-78
2022/08/06 08:13:10;;;;;;;4.88;1.90;;;18.70;99.90;;;;;;5110379;28;20427;-77
2022/08/06 08:15:37;;;;;;;3.95;1.80;;;18.80;99.90;;;;;;5097817;27;20414;-78
2022/08/06 08:18:04;;;;;;;4.43;1.83;;;;;;;;;;5119491;27;20436;-78
2022/08/06 08:20:31;;;;;;;4.20;1.65;;;19.10;99.90;;;;;;5118394;27;20422;-78
2022/08/06 08:22:57;;;;;;;4.72;1.73;;;19.20;99.90;;;;;;5093776;28;20936;-79
2022/08/06 08:25:23;;;;;;;4.85;2.00;;;19.30;99.90;;;;;;5081551;28;20423;-79
2022/08/06 08:27:51;;;;;;;5.82;2.08;;;19.40;99.90;;;;;;5112383;27;20436;-77
2022/08/06 08:30:17;;;;;;;5.17;1.93;;;;;;;;;;5097019;28;20452;-78
2022/08/06 08:32:44;;;;;;;3.78;1.90;;;;;;;;;;5104027;27;20433;-78
2022/08/06 08:35:11;;;;;;;3.72;1.80;;;19.50;99.90;;;;;;5102403;27;20417;-77
2022/08/06 08:37:37;;;;;;;4.80;1.90;;;19.30;99.90;;;;;;5105395;27;20497;-78
2022/08/06 08:40:03;;;;;;;4.53;1.90;;;19.30;99.90;;;;;;5128396;27;20534;-78
2022/08/06 08:42:43;;;;;;;3.40;1.83;;;19.10;99.90;;;;;;5078338;28;20509;-78
2022/08/06 08:45:10;;;;;;;5.70;2.00;;;;;;;;;;5111012;28;20411;-77
2022/08/06 08:47:41;;;;;;;4.32;1.70;;;19.70;99.90;;;;;;5107372;27;20449;-77
2022/08/06 08:50:08;;;;;;;3.80;1.73;;;19.50;99.90;;;;;;5100525;28;20476;-77
2022/08/06 08:52:35;;;;;;;4.63;2.00;;;19.70;99.90;;;;;;5098013;27;20902;-76
2022/08/06 08:55:04;;;;;;;4.83;2.10;;;19.60;99.90;;;;;;5109082;27;20505;-77
2022/08/06 08:57:32;;;;;;;4.65;1.80;;;19.80;99.90;;;;;;5095805;28;20448;-77
2022/08/06 09:00:00;;;;;;;4.20;1.92;;;19.90;99.90;;;;;;5116369;27;20826;-77
2022/08/06 09:02:26;;;;;;;5.07;1.90;;;20.10;99.90;;;;;;5131979;27;20417;-77
2022/08/06 09:04:53;;;;;;;4.00;1.80;;;20.00;99.90;;;;;;5120876;27;20814;-78
2022/08/06 09:07:20;;;;;;;3.73;1.77;;;20.10;99.90;;;;;;5077977;28;20512;-78
2022/08/06 09:09:45;;;;;;;3.35;1.60;;;20.10;99.90;;;;;;5091348;28;20394;-79
2022/08/06 09:12:11;;;;;;;4.70;1.70;;;20.10;99.90;;;;;;5112429;28;20400;-78
2022/08/06 09:14:38;;;;;;;6.40;1.70;;;;;;;;;;5090407;28;20422;-78
2022/08/06 09:17:05;;;;;;;4.20;1.70;;;20.10;99.90;;;;;;5082098;28;20433;-79
2022/08/06 09:19:31;;;;;;;3.22;1.73;;;;;;;;;;5094216;28;20479;-79
2022/08/06 09:21:58;;;;;;;4.53;1.92;;;20.20;99.90;;;;;;5092756;28;20418;-78
2022/08/06 09:24:25;;;;;;;4.43;1.90;;;20.70;99.90;;;;;;5093304;28;20433;-78
2022/08/06 09:27:09;;;;;;;3.13;1.70;;;20.20;99.90;;;;;;5082193;28;20556;-79
2022/08/06 09:29:35;;;;;;;3.53;1.80;;;19.90;99.90;;;;;;5090960;28;20958;-79
2022/08/06 09:32:06;;;;;;;3.50;1.83;;;20.00;99.90;;;;;;5108409;28;20419;-78
2022/08/06 09:34:37;;;;;;;3.80;1.83;;;20.40;99.90;;;;;;5100960;28;20457;-78
2022/08/06 09:37:04;;;;;;;3.47;1.90;;;20.70;99.90;;;;;;5092615;28;20424;-79
2022/08/06 09:39:35;;;;;;;3.45;1.50;;;;;;;;;;5109576;28;20420;-78
2022/08/06 09:42:01;;;;;;;4.45;1.83;;;20.60;99.90;;;;;;5110978;28;20411;-78
2022/08/06 09:44:27;;;;;;;4.50;1.90;;;19.90;99.90;;;;;;5077848;28;20433;-77
2022/08/06 09:46:53;;;;;;;5.97;2.00;;;19.60;99.90;;;;;;5077405;28;20776;-77
2022/08/06 09:49:20;;;;;;;2.95;1.70;;;;;;;;;;5096745;28;20511;-77
2022/08/06 09:51:46;;;;;;;3.10;1.60;;;19.90;99.90;;;;;;5105748;28;20578;-78
2022/08/06 09:54:15;;;;;;;3.83;1.83;;;19.30;99.90;;;;;;5109462;28;20554;-77
2022/08/06 09:56:42;;;;;;;5.57;2.28;;;;;;;;;;5092817;28;20561;-77
2022/08/06 09:59:10;;;;;;;4.25;2.15;;;19.20;99.90;;;;;;5097093;28;20992;-78
2022/08/06 10:01:40;;;;;;;5.05;1.95;;;;;;;;;;5111812;28;20431;-78
2022/08/06 10:04:06;;;;;;;4.07;1.80;;;19.00;99.90;;;;;;5104639;28;20505;-78
2022/08/06 10:06:33;;;;;;;4.30;1.67;;;19.20;99.90;;;;;;5111648;27;20410;-78
2022/08/06 10:09:07;;;;;;;6.07;1.90;;;;;;;;;;5093122;28;20419;-79
2022/08/06 10:11:36;;;;;;;2.67;1.80;;;19.00;99.90;;;;;;5102973;28;20766;-79
2022/08/06 10:14:01;;;;;;;6.15;2.60;;;19.50;99.90;;;;;;5099973;28;20422;-78
2022/08/06 10:16:29;;;;;;;4.88;2.00;;;;;;;;;;5121010;28;20410;-78
2022/08/06 10:18:57;;;;;;;4.67;2.37;;;19.50;99.90;;;;;;5107394;28;20486;-78
2022/08/06 10:21:25;;;;;;;5.10;2.45;;;19.60;99.90;;;;;;5080450;28;20450;-77
2022/08/06 10:23:54;;;;;;;6.63;3.20;;;19.40;99.90;;;;;;5086306;28;20412;-78
2022/08/06 10:26:32;;;;;;;4.60;2.00;;;19.60;99.90;;;;;;5101504;27;20500;-77
2022/08/06 10:29:04;;;;;;;4.17;1.77;;;19.70;99.90;;;;;;5102953;27;20429;-76
2022/08/06 10:31:32;;;;;;;4.28;1.90;;;20.00;99.90;;;;;;5116898;27;20414;-78
2022/08/06 10:34:02;;;;;;;4.60;2.17;;;19.80;99.90;;;;;;5080090;28;20424;-79
2022/08/06 10:36:33;;;;;;;4.80;1.90;;;;;;;;;;5097141;28;20401;-78
2022/08/06 10:38:59;;;;;;;5.63;2.05;;;;;;;;;;5093607;28;20491;-79
2022/08/06 10:41:27;;;;;;;4.50;1.80;;;20.60;99.90;;;;;;5115209;27;20412;-79
2022/08/06 10:43:54;;;;;;;3.42;1.90;;;21.20;99.90;;;;;;5120667;27;20502;-78
2022/08/06 10:46:20;;;;;;;4.43;2.00;;;21.50;99.90;;;;;;5084500;27;20830;-78
2022/08/06 10:48:47;;;;;;;4.38;2.17;;;21.50;99.90;;;;;;5129769;27;20505;-79
2022/08/06 10:51:14;;;;;;;4.75;1.90;;;21.30;99.90;;;;;;5127943;27;20426;-79
2022/08/06 10:53:44;;;;;;;4.72;2.22;;;21.40;99.90;;;;;;5092351;27;20426;-80
2022/08/06 10:56:14;;;;;;;4.20;2.10;;;21.30;99.90;;;;;;5134694;27;20406;-79
2022/08/06 10:58:41;;;;;;;4.50;2.40;;;;;;;;;;5118561;27;20393;-80
2022/08/06 11:01:38;;;;;;;4.70;2.25;;;20.50;99.90;;;;;;5094989;28;20451;-79
2022/08/06 11:04:25;;;;;;;5.30;2.30;;;20.20;99.90;;;;;;5093419;28;20951;-79
2022/08/06 11:07:28;;;;;;;4.75;2.42;;;19.90;99.90;;;;;;5109862;27;20418;-79
2022/08/06 11:10:22;;;;;;;4.75;2.38;;;20.00;99.90;;;;;;5108806;27;20422;-79
2022/08/06 11:12:53;;;;;;;4.30;2.30;;;20.20;99.90;;;;;;5127718;27;20424;-79
2022/08/06 11:15:22;;;;;;;3.92;2.30;;;19.80;99.90;;;;;;5102193;28;20466;-80
2022/08/06 11:17:53;;;;;;;4.93;2.10;;;20.20;99.90;;;;;;5110762;27;20425;-80
2022/08/06 11:20:31;;;;;;;4.35;2.17;;;20.00;99.90;;;;;;5088538;28;20414;-79
2022/08/06 11:22:57;;;;;;;5.20;2.40;;;;;;;;;;5088122;28;20915;-79
2022/08/06 11:25:38;;;;;;;4.35;2.60;;;20.40;99.90;;;;;;5084442;28;20442;-78
2022/08/06 11:28:04;;;;;;;4.88;2.25;;;20.90;99.90;;;;;;5112430;28;20417;-78
2022/08/06 11:30:44;;;;;;;3.17;2.25;;;21.10;99.90;;;;;;5111788;28;20946;-78
2022/08/06 11:33:11;;;;;;;4.20;2.20;;;21.50;99.90;;;;;;5095880;27;20453;-79
2022/08/06 11:35:38;;;;;;;4.07;2.30;;;21.80;99.90;;;;;;5108515;27;20505;-80
2022/08/06 11:38:08;;;;;;;5.63;2.63;;;21.50;99.90;;;;;;5094508;28;20488;-79
2022/08/06 11:40:56;;;;;;;4.18;2.30;;;21.10;99.90;;;;;;5084246;27;20419;-79
2022/08/06 11:43:40;;;;;;;5.22;2.28;;;21.10;99.90;;;;;;5090722;28;20432;-81
2022/08/06 11:46:22;;;;;;;5.65;3.42;;;21.10;99.90;;;;;;5098336;28;20413;-82
2022/08/06 11:49:03;;;;;;;8.13;3.97;;;21.10;99.90;;;;;;5106442;28;20426;-81
2022/08/06 11:51:48;;;;;;;4.70;2.65;;;21.50;99.90;;;;;;5097517;28;20421;-81
2022/08/06 11:54:28;;;;;;;3.53;2.53;;;21.40;99.90;;;;;;5100506;28;20800;-83
2022/08/06 11:57:01;;;;;;;4.75;2.60;;;21.50;99.90;;;;;;5115653;27;20888;-82
2022/08/06 11:59:29;;;;;;;4.73;2.70;;;21.50;99.90;;;;;;5101636;27;20420;-81
2022/08/06 12:01:54;;;;;;;4.40;2.70;;;21.50;99.90;;;;;;5099838;27;20436;-81
2022/08/06 12:04:35;;;;;;;4.18;2.50;;;21.50;99.90;;;;;;5129065;27;20421;-82
2022/08/06 12:07:34;;;;;;;4.68;2.70;;;22.00;99.90;;;;;;5138076;27;20402;-81
2022/08/06 12:09:59;;;;;;;4.67;2.83;;;22.00;99.90;;;;;;5098238;28;20425;-82
2022/08/06 12:12:28;;;;;;;4.70;3.03;;;22.00;99.90;;;;;;5097996;28;20402;-83
2022/08/06 12:14:55;;;;;;;4.35;2.63;;;21.90;99.90;;;;;;5098256;28;20417;-81
2022/08/06 12:17:22;;;;;;;5.15;2.60;;;22.70;99.90;;;;;;5097083;28;20425;-82
2022/08/06 12:19:52;;;;;;;3.97;2.47;;;22.40;99.90;;;;;;5108638;28;20419;-81
2022/08/06 12:22:20;;;;;;;4.33;2.90;;;22.10;99.90;;;;;;5115643;28;20427;-81
2022/08/06 12:24:49;;;;;;;4.43;3.17;;;22.10;99.90;;;;;;5113478;27;20446;-80
2022/08/06 12:27:16;;;;;;;5.40;2.60;;;21.60;99.90;;;;;;5119469;27;20730;-76
2022/08/06 12:29:43;;;;;;;4.20;2.22;;;21.80;99.90;;;;;;5114445;28;20408;-82
2022/08/06 12:32:28;;;;;;;4.50;2.67;;;22.00;99.90;;;;;;5127914;27;20485;-82
2022/08/06 12:34:58;;;;;;;4.40;2.22;;;22.00;99.90;;;;;;5127243;27;20425;-82
2022/08/06 12:37:54;;;;;;;4.25;2.00;;;22.30;99.90;;;;;;5133395;27;20423;-82
2022/08/06 12:40:23;;;;;;;3.13;1.40;;;22.60;99.90;;;;;;5089507;28;20724;-82
2022/08/06 12:42:50;;;;;;;3.13;1.55;;;22.90;99.90;;;;;;5092063;28;20780;-82
2022/08/06 12:45:23;;;;;;;4.25;1.73;;;22.90;99.90;;;;;;5130461;27;20475;-82
2022/08/06 12:48:10;;;;;;;2.33;1.60;;;22.90;99.90;;;;;;5096738;28;20468;-81
2022/08/06 12:50:42;;;;;;;3.00;1.65;;;23.20;99.90;;;;;;5098786;28;20473;-82
2022/08/06 12:53:13;;;;;;;11.80;2.10;;;23.30;99.90;;;;;;5129401;27;20926;-81
2022/08/06 12:55:50;;;;;;;2.63;1.70;;;23.20;99.90;;;;;;5130670;27;20450;-82
2022/08/06 12:58:23;;;;;;;3.22;1.80;;;23.40;99.90;;;;;;5133248;27;20395;-82
2022/08/06 13:00:59;;;;;;;4.25;2.00;;;23.30;99.90;;;;;;5108671;27;20867;-82
2022/08/06 13:03:26;;;;;;;2.50;1.80;;;23.60;99.90;;;;;;5133193;27;20407;-82
2022/08/06 13:05:59;;;;;;;3.40;1.83;;;23.80;99.90;;;;;;5133515;27;20400;-83
2022/08/06 13:08:26;;;;;;;4.43;2.38;;;23.50;99.90;;;;;;5129771;27;20418;-82
2022/08/06 13:10:55;;;;;;;3.83;2.15;;;23.60;99.90;;;;;;5116892;27;20396;-83
2022/08/06 13:13:33;;;;;;;4.10;2.47;;;23.50;99.90;;;;;;5100112;27;20421;-84
2022/08/06 13:16:07;;;;;;;6.57;2.40;;;23.40;99.90;;;;;;5109392;27;20505;-83
2022/08/06 13:18:34;;;;;;;3.88;2.30;;;23.20;99.90;;;;;;5118141;27;20929;-82
2022/08/06 13:21:01;;;;;;;3.20;2.40;;;22.80;99.90;;;;;;5089124;27;20422;-82
2022/08/06 13:23:37;;;;;;;3.53;2.20;;;22.60;99.90;;;;;;5135146;27;20531;-82
2022/08/06 13:26:23;;;;;;;3.78;2.28;;;22.60;99.90;;;;;;5112027;28;20416;-83
2022/08/06 13:29:10;;;;;;;3.70;2.20;;;22.60;99.90;;;;;;5107147;27;20910;-82
2022/08/06 13:31:38;;;;;;;4.30;2.17;;;22.60;99.90;;;;;;5118596;27;20833;-82
2022/08/06 13:34:06;;;;;;;5.43;2.55;;;22.60;99.90;;;;;;5107413;28;20556;-83
2022/08/06 13:36:36;;;;;;;4.40;2.40;;;22.30;99.90;;;;;;5122160;28;20414;-83
2022/08/06 13:39:24;;;;;;;4.28;2.42;;;22.80;99.90;;;;;;5120862;28;20737;-82
2022/08/06 13:42:12;;;;;;;3.67;2.30;;;23.60;99.90;;;;;;5104198;28;20422;-84
2022/08/06 13:44:41;;;;;;;5.55;2.90;;;23.50;99.90;;;;;;5091533;28;20401;-78
2022/08/06 13:47:08;;;;;;;4.28;2.70;;;22.80;99.90;;;;;;5103295;28;20469;-78
2022/08/06 13:49:35;;;;;;;5.50;3.00;;;21.80;99.90;;;;;;5102977;28;20422;-81
2022/08/06 13:52:01;;;;;;;5.07;3.05;;;21.90;99.90;;;;;;5090205;28;20418;-81
2022/08/06 13:54:28;;;;;;;7.30;2.90;;;21.90;99.90;;;;;;5099596;28;20420;-79
2022/08/06 13:56:55;;;;;;;5.68;2.63;;;22.30;99.90;;;;;;5113086;28;20420;-79
2022/08/06 13:59:23;;;;;;;3.80;2.70;;;22.60;99.90;;;;;;5097864;28;20396;-80
2022/08/06 14:01:49;;;;;;;5.05;3.10;;;22.70;99.90;;;;;;5101279;28;20924;-79
2022/08/06 14:04:21;;;;;;;3.72;2.50;;;22.70;99.90;;;;;;5112634;27;20925;-80
2022/08/06 14:06:48;;;;;;;4.10;2.42;;;;;;;;;;5110863;27;20425;-80
2022/08/06 14:09:16;;;;;;;4.63;2.30;;;22.30;99.90;;;;;;5111630;27;20746;-82
2022/08/06 14:11:42;;;;;;;3.45;2.22;;;22.20;99.90;;;;;;5107409;27;20580;-79
2022/08/06 14:14:08;;;;;;;4.72;2.40;;;22.10;99.90;;;;;;5077222;28;20509;-80
2022/08/06 14:16:34;;;;;;;4.00;2.47;;;22.20;99.90;;;;;;5112443;27;20418;-79
2022/08/06 14:19:00;;;;;;;4.50;2.10;;;22.50;99.90;;;;;;5093008;28;20421;-80
2022/08/06 14:21:25;;;;;;;3.55;2.00;;;22.10;99.90;;;;;;5097476;28;20404;-79
2022/08/06 14:23:51;;;;;;;4.20;2.15;;;22.40;99.90;;;;;;5107709;27;20437;-79
2022/08/06 14:26:17;;;;;;;3.73;2.20;;;;;;;;;;5132060;27;20406;-78
2022/08/06 14:28:43;;;;;;;4.00;2.20;;;22.60;99.90;;;;;;5117188;27;20884;-79
2022/08/06 14:31:09;;;;;;;3.50;2.23;;;22.30;99.90;;;;;;5098420;27;20504;-79
2022/08/06 14:33:35;;;;;;;4.30;2.50;;;22.00;99.90;;;;;;5078191;28;20556;-79
2022/08/06 14:36:00;;;;;;;4.20;2.45;;;22.30;99.90;;;;;;5103565;27;20471;-79
2022/08/06 14:38:26;;;;;;;5.23;2.30;;;22.80;99.90;;;;;;5095943;28;20762;-79
2022/08/06 14:46:20;;;;;;;5.30;2.40;;;22.20;99.90;;;;;;5113071;28;20416;-77
2022/08/06 14:48:45;;;;;;;3.28;2.30;;;22.40;99.90;;;;;;5107203;27;20426;-77
2022/08/06 14:51:12;;;;;;;3.53;2.17;;;22.60;99.90;;;;;;5078695;28;20404;-78
2022/08/06 14:53:38;;;;;;;4.20;2.42;;;22.70;99.90;;;;;;5077911;27;20412;-78
2022/08/06 14:56:03;;;;;;;3.97;2.50;;;23.10;99.90;;;;;;5120954;27;20929;-78
2022/08/06 14:58:29;;;;;;;4.15;2.60;;;23.10;99.90;;;;;;5117193;27;20549;-78
2022/08/06 15:00:55;;;;;;;4.60;2.30;;;23.40;99.90;;;;;;5094957;27;20906;-77
2022/08/06 15:03:21;;;;;;;3.63;2.10;;;23.50;99.90;;;;;;5099027;28;20435;-77
2022/08/06 15:05:47;;;;;;;3.95;2.47;;;23.70;99.90;;;;;;5108065;27;20753;-77
2022/08/06 15:08:14;;;;;;;3.75;2.40;;;23.70;99.90;;;;;;5104178;28;20425;-78
2022/08/06 15:10:40;;;;;;;3.60;2.60;;;23.80;99.90;;;;;;5105068;27;20412;-78